Time;durP1;ratioP1;P1;durP2;ratioP2;P2;SDS_P1;SDS_P2;PMS_P1;PMS_P2;Temp;Humidity;BMP_temperature;BMP_pressure;BME280_temperature;BME280_humidity;BME280_pressure;Samples;Min_cycle;Max_cycle;Signal;HPM_P1;HPM_P2
2021/07/18 00:03:01;;;;;;;16.30;11.10;;;;;;;;;;8252748;28;20372;-72
2021/07/18 00:07:05;;;;;;;18.35;11.23;;;;;;;;;;8268736;28;20397;-71
2021/07/18 00:11:10;;;;;;;17.88;10.60;;;;;;;;;;8292364;28;20354;-71
2021/07/18 00:15:15;;;;;;;17.88;10.32;;;;;;;;;;8290859;28;20502;-71
2021/07/18 00:19:20;;;;;;;17.60;10.27;;;;;;;;;;8291213;28;20329;-70
2021/07/18 00:23:23;;;;;;;15.30;10.18;;;;;;;;;;8290801;28;20371;-71
2021/07/18 00:27:28;;;;;;;19.83;11.35;;;;;;;;;;8292612;28;20029;-71
2021/07/18 00:31:38;;;;;;;17.58;11.10;;;;;;;;;;8290600;28;20448;-71
2021/07/18 00:35:43;;;;;;;23.05;11.07;;;;;;;;;;8291033;28;20363;-71
2021/07/18 00:39:48;;;;;;;15.75;10.85;;;;;;;;;;8289967;28;20044;-71
2021/07/18 00:43:53;;;;;;;19.95;11.18;;;;;;;;;;8290431;28;20394;-71
2021/07/18 00:47:59;;;;;;;18.40;11.40;;;;;;;;;;8289894;28;20528;-72
2021/07/18 00:52:06;;;;;;;16.75;11.10;;;;;;;;;;8290684;28;20382;-71
2021/07/18 00:56:11;;;;;;;21.60;11.67;;;;;;;;;;8290199;28;20074;-71
2021/07/18 01:00:18;;;;;;;22.55;11.63;;;;;;;;;;8273296;28;20402;-71
2021/07/18 01:04:22;;;;;;;15.48;11.10;;;;;;;;;;8288286;28;20114;-71
2021/07/18 01:08:28;;;;;;;20.83;11.20;;;;;;;;;;8272740;28;20044;-71
2021/07/18 01:12:33;;;;;;;19.38;11.13;;;;;;;;;;8273603;28;20334;-71
2021/07/18 01:16:38;;;;;;;20.13;11.48;;;;;;;;;;8255001;28;20370;-75
2021/07/18 01:20:45;;;;;;;16.90;10.95;;;;;;;;;;8272643;28;20371;-71
2021/07/18 01:24:50;;;;;;;13.87;10.40;;;;;;;;;;8290422;28;20448;-71
2021/07/18 01:28:56;;;;;;;19.42;11.35;;;;;;;;;;8272332;28;20489;-71
2021/07/18 01:33:01;;;;;;;21.30;11.20;;;;;;;;;;8289301;28;20049;-71
2021/07/18 01:37:05;;;;;;;21.80;12.02;;;;;;;;;;8289126;28;20045;-72
2021/07/18 01:41:09;;;;;;;13.75;10.25;;;;;;;;;;8289648;28;20394;-71
2021/07/18 01:45:15;;;;;;;15.80;11.50;;;;;;;;;;8270138;28;20383;-70
2021/07/18 01:49:21;;;;;;;16.85;11.02;;;;;;;;;;8288772;28;20067;-71
2021/07/18 01:53:24;;;;;;;15.23;10.65;;;;;;;;;;8271923;28;20359;-72
2021/07/18 01:57:29;;;;;;;16.80;12.10;;;;;;;;;;8270763;28;20509;-71
2021/07/18 02:01:35;;;;;;;17.70;11.35;;;;;;;;;;8288578;28;20344;-71
2021/07/18 02:05:40;;;;;;;17.13;11.45;;;;;;;;;;8288521;28;20340;-71
2021/07/18 02:09:45;;;;;;;16.35;10.93;;;;;;;;;;8270623;28;20071;-71
2021/07/18 02:13:55;;;;;;;15.45;10.38;;;;;;;;;;8270770;28;20410;-70
2021/07/18 02:18:00;;;;;;;15.07;9.90;;;;;;;;;;8289916;28;20459;-71
2021/07/18 02:22:05;;;;;;;14.88;10.13;;;;;;;;;;8270865;28;20494;-70
2021/07/18 02:26:11;;;;;;;16.55;10.27;;;;;;;;;;8270726;28;20498;-71
2021/07/18 02:30:19;;;;;;;14.90;10.43;;;;;;;;;;8293972;28;20349;-72
2021/07/18 02:34:24;;;;;;;22.67;10.63;;;;;;;;;;8293130;28;20517;-71
2021/07/18 02:38:29;;;;;;;15.05;11.20;;;;;;;;;;8294621;28;20429;-71
2021/07/18 02:42:35;;;;;;;23.65;11.52;;;;;;;;;;8294205;28;20463;-71
2021/07/18 02:46:40;;;;;;;17.48;11.00;;;;;;;;;;8293950;28;20500;-72
2021/07/18 02:50:44;;;;;;;15.23;11.25;;;;;;;;;;8294341;28;20351;-71
2021/07/18 02:54:50;;;;;;;16.50;11.02;;;;;;;;;;8293168;28;20474;-71
2021/07/18 02:58:55;;;;;;;16.17;10.98;;;;;;;;;;8294098;28;20406;-72
2021/07/18 03:03:00;;;;;;;15.48;10.40;;;;;;;;;;8275102;28;20373;-71
2021/07/18 03:07:04;;;;;;;16.40;10.90;;;;;;;;;;8293297;28;20468;-72
2021/07/18 03:11:09;;;;;;;16.95;11.38;;;;;;;;;;8293212;28;20355;-71
2021/07/18 03:15:17;;;;;;;20.67;11.07;;;;;;;;;;8294460;28;20516;-71
2021/07/18 03:19:22;;;;;;;;;;;;;;;;;;8275679;28;20535;-71
2021/07/18 03:23:27;;;;;;;18.27;10.32;;;;;;;;;;8258864;28;19920;-70
2021/07/18 03:27:33;;;;;;;15.98;10.60;;;;;;;;;;8276523;28;20059;-71
2021/07/18 03:31:38;;;;;;;18.27;12.20;;;;;;;;;;8293624;28;20481;-71
2021/07/18 03:35:43;;;;;;;20.90;11.50;;;;;;;;;;8291341;28;20428;-70
2021/07/18 03:39:48;;;;;;;18.52;11.90;;;;;;;;;;8291781;28;20483;-71
2021/07/18 03:43:53;;;;;;;14.65;10.45;;;;;;;;;;8291547;28;20356;-70
2021/07/18 03:47:58;;;;;;;12.48;9.38;;;;;;;;;;8292725;28;20400;-71
2021/07/18 03:52:05;;;;;;;13.50;9.70;;;;;;;;;;8292096;28;20049;-70
2021/07/18 03:56:10;;;;;;;16.65;11.48;;;;;;;;;;8291745;28;20399;-72
2021/07/18 04:00:16;;;;;;;12.85;9.63;;;;;;;;;;8292378;28;20501;-70
2021/07/18 04:04:21;;;;;;;19.60;11.27;;;;;;;;;;8258197;28;20363;-72
2021/07/18 04:08:26;;;;;;;15.02;10.77;;;;;;;;;;8290884;28;20501;-71
2021/07/18 04:12:31;;;;;;;18.38;11.20;;;;;;;;;;8258085;28;20450;-70
2021/07/18 04:16:36;;;;;;;15.50;11.15;;;;;;;;;;8291304;28;20367;-70
2021/07/18 04:20:41;;;;;;;15.75;10.55;;;;;;;;;;8273317;28;20348;-70
2021/07/18 04:24:46;;;;;;;15.05;10.10;;;;;;;;;;8272436;28;20049;-72
2021/07/18 04:28:52;;;;;;;17.02;9.73;;;;;;;;;;8273851;28;20333;-70
2021/07/18 04:32:57;;;;;;;14.73;9.30;;;;;;;;;;8290075;28;20438;-71
2021/07/18 04:37:02;;;;;;;16.98;8.52;;;;;;;;;;8292605;28;20056;-70
2021/07/18 04:41:06;;;;;;;14.75;9.18;;;;;;;;;;8291653;28;20463;-70
2021/07/18 04:45:12;;;;;;;16.25;9.38;;;;;;;;;;8271810;28;20359;-71
2021/07/18 04:49:17;;;;;;;14.15;8.85;;;;;;;;;;8273559;28;20447;-72
2021/07/18 04:53:21;;;;;;;12.57;7.53;;;;;;;;;;8289324;28;20458;-71
2021/07/18 04:57:26;;;;;;;12.75;7.35;;;;;;;;;;8290155;28;20044;-71
2021/07/18 05:01:31;;;;;;;12.00;7.78;;;;;;;;;;8290335;28;20056;-72
2021/07/18 05:05:37;;;;;;;12.82;7.50;;;;;;;;;;8238895;28;20479;-70
2021/07/18 05:09:42;;;;;;;10.02;7.18;;;;;;;;;;8257706;28;20379;-71
2021/07/18 05:13:49;;;;;;;11.77;7.22;;;;;;;;;;8258609;28;20049;-70
2021/07/18 05:17:55;;;;;;;14.73;6.78;;;;;;;;;;8239400;28;20452;-71
2021/07/18 05:22:00;;;;;;;10.25;6.30;;;;;;;;;;8258255;28;20620;-71
2021/07/18 05:26:06;;;;;;;12.30;6.40;;;;;;;;;;8254604;28;20452;-71
2021/07/18 05:30:12;;;;;;;10.90;7.00;;;;;;;;;;8254552;28;20037;-70
2021/07/18 05:34:18;;;;;;;13.20;7.43;;;;;;;;;;8256753;28;20487;-72
2021/07/18 05:38:23;;;;;;;11.45;7.28;;;;;;;;;;8255501;28;20487;-71
2021/07/18 05:45:38;;;;;;;10.82;7.28;;;;;;;;;;8446059;27;1260683;-70
2021/07/18 05:49:44;;;;;;;11.10;7.63;;;;;;;;;;8453033;27;20362;-71
2021/07/18 05:53:49;;;;;;;10.60;6.78;;;;;;;;;;8453300;27;20486;-72
2021/07/18 05:57:54;;;;;;;10.70;7.40;;;;;;;;;;8454186;27;20524;-70
2021/07/18 06:01:59;;;;;;;11.63;7.60;;;;;;;;;;8433619;27;20444;-71
2021/07/18 06:06:06;;;;;;;12.10;7.15;;;;;;;;;;8454544;27;20453;-72
2021/07/18 06:10:12;;;;;;;10.80;6.75;;;;;;;;;;8417187;27;20387;-71
2021/07/18 06:14:17;;;;;;;9.70;6.40;;;;;;;;;;8452312;27;20437;-70
2021/07/18 06:18:23;;;;;;;10.57;5.13;;;;;;;;;;8448154;27;20042;-71
2021/07/18 06:22:28;;;;;;;10.02;5.85;;;;;;;;;;8385021;28;20454;-71
2021/07/18 06:26:33;;;;;;;9.50;4.85;;;;;;;;;;8384419;28;20366;-71
2021/07/18 06:30:38;;;;;;;6.80;5.38;;;;;;;;;;8386956;28;20081;-71
2021/07/18 06:34:44;;;;;;;6.60;4.35;;;;;;;;;;8364767;28;20347;-73
2021/07/18 06:38:55;;;;;;;7.32;4.30;;;;;;;;;;8365127;28;20113;-71
2021/07/18 06:43:00;;;;;;;11.02;5.07;;;;;;;;;;8384488;28;20505;-70
2021/07/18 06:47:06;;;;;;;10.05;4.55;;;;;;;;;;8385220;28;20362;-70
2021/07/18 06:51:12;;;;;;;6.03;4.75;;;;;;;;;;8385197;28;20070;-69
2021/07/18 06:55:17;;;;;;;7.05;4.20;;;;;;;;;;8371555;28;20576;-71
2021/07/18 06:59:22;;;;;;;5.78;4.00;;;;;;;;;;8361674;28;20462;-70
2021/07/18 07:03:27;;;;;;;8.60;3.90;;;;;;;;;;8362615;28;20381;-71
2021/07/18 07:07:33;;;;;;;6.28;4.15;;;;;;;;;;8361447;28;20497;-70
2021/07/18 07:11:39;;;;;;;8.70;5.18;;;;;;;;;;8361408;28;20345;-71
2021/07/18 07:15:44;;;;;;;10.20;4.45;;;;;;;;;;8342716;28;20036;-70
2021/07/18 07:19:49;;;;;;;7.05;4.10;;;;;;;;;;8313318;28;20393;-72
2021/07/18 07:23:54;;;;;;;11.45;4.13;;;;;;;;;;8359503;28;20332;-70
2021/07/18 07:28:00;;;;;;;7.40;4.53;;;;;;;;;;8359589;28;20043;-71
2021/07/18 07:32:06;;;;;;;8.20;4.00;;;;;;;;;;8341799;28;20043;-70
2021/07/18 07:36:12;;;;;;;7.80;4.25;;;;;;;;;;8358514;28;20051;-71
2021/07/18 07:40:19;;;;;;;10.00;5.35;;;;;;;;;;8361393;28;20504;-70
2021/07/18 07:44:24;;;;;;;8.63;5.22;;;;;;;;;;8358992;28;20473;-71
2021/07/18 07:48:30;;;;;;;8.68;5.15;;;;;;;;;;8267600;28;20051;-70
2021/07/18 07:52:36;;;;;;;9.40;5.10;;;;;;;;;;8196114;28;20495;-70
2021/07/18 07:56:42;;;;;;;8.70;5.30;;;;;;;;;;8342119;28;20381;-71
2021/07/18 08:00:47;;;;;;;13.38;6.80;;;;;;;;;;8324384;28;20040;-71
2021/07/18 08:04:52;;;;;;;10.77;7.32;;;;;;;;;;8357005;28;20473;-72
2021/07/18 08:08:57;;;;;;;11.55;7.40;;;;;;;;;;8357961;28;20039;-71
2021/07/18 08:13:02;;;;;;;13.52;7.00;;;;;;;;;;8342637;28;20446;-72
2021/07/18 08:17:08;;;;;;;11.32;7.78;;;;;;;;;;8358571;28;20063;-71
2021/07/18 08:21:13;;;;;;;14.90;10.13;;;;;;;;;;8358504;28;20358;-71
2021/07/18 08:25:39;;;;;;;16.17;10.70;;;;;;;;;;8358438;28;20438;-71
2021/07/18 08:29:45;;;;;;;21.00;11.25;;;;;;;;;;8341955;28;20078;-71
2021/07/18 08:33:51;;;;;;;16.90;11.68;;;;;;;;;;8357386;28;20040;-71
2021/07/18 08:37:57;;;;;;;;;;;;;;;;;;8340940;28;20465;-71
2021/07/18 08:42:03;;;;;;;18.80;11.93;;;;;;;;;;8358422;28;20338;-71
2021/07/18 08:46:08;;;;;;;21.15;11.40;;;;;;;;;;8338533;28;20474;-71
2021/07/18 08:50:14;;;;;;;15.10;10.90;;;;;;;;;;8361202;28;20345;-72
2021/07/18 08:54:23;;;;;;;16.40;9.63;;;;;;;;;;8356543;28;20485;-71
2021/07/18 08:58:28;;;;;;;12.88;8.70;;;;;;;;;;8353828;28;20358;-70
2021/07/18 09:02:35;;;;;;;11.02;8.10;;;;;;;;;;8338161;28;20051;-70
2021/07/18 09:06:52;;;;;;;14.07;7.65;;;;;;;;;;8356261;28;20043;-71
2021/07/18 09:10:57;;;;;;;11.82;6.65;;;;;;;;;;8338348;28;20493;-71
2021/07/18 09:15:04;;;;;;;9.65;6.28;;;;;;;;;;8358653;28;20426;-71
2021/07/18 09:19:27;;;;;;;11.05;6.78;;;;;;;;;;8354010;28;20419;-71
2021/07/18 09:23:32;;;;;;;16.80;9.43;;;;;;;;;;8357933;28;20349;-71
2021/07/18 09:27:37;;;;;;;12.82;8.25;;;;;;;;;;8339021;28;20480;-71
2021/07/18 09:31:44;;;;;;;11.68;7.72;;;;;;;;;;8355497;28;20408;-72
2021/07/18 09:35:50;;;;;;;13.35;8.55;;;;;;;;;;8356614;28;20547;-70
2021/07/18 09:40:08;;;;;;;19.97;11.03;;;;;;;;;;8358098;28;20369;-73
2021/07/18 09:44:13;;;;;;;21.75;13.70;;;;;;;;;;8356957;28;20377;-73
2021/07/18 09:48:19;;;;;;;21.75;12.95;;;;;;;;;;8357957;28;20066;-71
2021/07/18 09:52:28;;;;;;;15.88;10.68;;;;;;;;;;8338070;28;20402;-72
2021/07/18 09:56:33;;;;;;;13.90;9.93;;;;;;;;;;8339051;28;20481;-71
2021/07/18 10:00:43;;;;;;;17.88;11.55;;;;;;;;;;8356579;28;20449;-72
2021/07/18 10:04:48;;;;;;;18.60;11.45;;;;;;;;;;8320912;28;20373;-72
2021/07/18 10:08:56;;;;;;;19.98;11.40;;;;;;;;;;8354044;28;20051;-71
2021/07/18 10:13:05;;;;;;;15.40;11.27;;;;;;;;;;8357092;28;20124;-71
2021/07/18 10:17:11;;;;;;;20.13;10.48;;;;;;;;;;8356087;28;20542;-72
2021/07/18 10:21:20;;;;;;;15.88;10.18;;;;;;;;;;8356166;28;20051;-71
2021/07/18 10:25:28;;;;;;;12.05;9.63;;;;;;;;;;8355209;28;20358;-72
2021/07/18 10:29:33;;;;;;;10.63;8.50;;;;;;;;;;8355739;28;20500;-71
2021/07/18 10:33:42;;;;;;;12.70;9.00;;;;;;;;;;8362747;28;20466;-72
2021/07/18 10:37:46;;;;;;;15.52;8.88;;;;;;;;;;8343574;28;20062;-71
2021/07/18 10:41:51;;;;;;;11.68;8.52;;;;;;;;;;8342013;28;20093;-72
2021/07/18 10:45:57;;;;;;;7.85;5.65;;;;;;;;;;8360720;28;20065;-72
2021/07/18 10:50:02;;;;;;;8.35;5.07;;;;;;;;;;8327540;28;20474;-72
2021/07/18 10:54:19;;;;;;;10.15;5.20;;;;;;;;;;8343557;28;20066;-72
2021/07/18 10:58:39;;;;;;;10.82;6.57;;;;;;;;;;8359592;28;20070;-72
2021/07/18 11:02:46;;;;;;;11.00;5.50;;;;;;;;;;8361133;28;20501;-71
2021/07/18 11:06:51;;;;;;;9.10;5.35;;;;;;;;;;8359925;28;20040;-76
2021/07/18 11:10:57;;;;;;;9.40;5.70;;;;;;;;;;8359365;28;20354;-72
2021/07/18 11:15:17;;;;;;;11.40;4.60;;;;;;;;;;8361289;28;20389;-72
2021/07/18 11:19:37;;;;;;;10.75;4.80;;;;;;;;;;8324959;28;20454;-72
2021/07/18 11:23:46;;;;;;;10.48;4.68;;;;;;;;;;8358550;28;20819;-72
2021/07/18 11:27:51;;;;;;;9.07;4.32;;;;;;;;;;8359784;28;20489;-72
2021/07/18 11:31:57;;;;;;;7.65;4.32;;;;;;;;;;8361735;28;20067;-72
2021/07/18 11:36:01;;;;;;;7.45;3.78;;;;;;;;;;8359626;28;20047;-72
2021/07/18 11:40:09;;;;;;;8.50;4.07;;;;;;;;;;8360536;28;20492;-72
2021/07/18 11:44:16;;;;;;;9.32;3.78;;;;;;;;;;8357154;28;20504;-72
2021/07/18 11:48:25;;;;;;;7.03;3.90;;;;;;;;;;8356953;28;20511;-71
2021/07/18 11:52:30;;;;;;;11.15;3.67;;;;;;;;;;8358553;28;20454;-71
2021/07/18 11:56:40;;;;;;;6.90;3.92;;;;;;;;;;8358723;28;20466;-72
2021/07/18 12:00:59;;;;;;;6.45;3.63;;;;;;;;;;8340654;28;20509;-72
2021/07/18 12:05:08;;;;;;;10.18;3.88;;;;;;;;;;8357099;28;20478;-72
2021/07/18 12:09:16;;;;;;;5.82;3.50;;;;;;;;;;8357261;28;20043;-71
2021/07/18 12:13:35;;;;;;;5.93;3.28;;;;;;;;;;8340623;28;20346;-72
2021/07/18 12:17:40;;;;;;;5.78;3.60;;;;;;;;;;8359384;28;20489;-71
2021/07/18 12:21:48;;;;;;;5.65;3.28;;;;;;;;;;8356954;28;20354;-72
2021/07/18 12:25:59;;;;;;;7.38;3.50;;;;;;;;;;8311833;28;20458;-72
2021/07/18 12:30:08;;;;;;;8.10;3.67;;;;;;;;;;8253810;28;20406;-72
2021/07/18 12:34:13;;;;;;;5.57;3.55;;;;;;;;;;8286976;28;20794;-72
2021/07/18 12:38:22;;;;;;;6.95;3.33;;;;;;;;;;8286972;28;20052;-73
2021/07/18 12:42:30;;;;;;;5.57;3.38;;;;;;;;;;8287158;28;20391;-72
2021/07/18 12:46:36;;;;;;;5.22;3.40;;;;;;;;;;8285117;28;20410;-71
2021/07/18 12:50:42;;;;;;;5.18;3.72;;;;;;;;;;8285170;28;20391;-71
2021/07/18 12:54:46;;;;;;;7.20;3.40;;;;;;;;;;8277103;28;20504;-73
2021/07/18 12:58:51;;;;;;;4.40;3.30;;;;;;;;;;8277296;28;20060;-72
2021/07/18 13:03:48;;;;;;;8.20;3.70;;;;;;;;;;8276340;28;20036;-72
2021/07/18 13:07:54;;;;;;;10.07;3.50;;;;;;;;;;8230533;28;20364;-72
2021/07/18 13:11:58;;;;;;;5.10;3.25;;;;;;;;;;8267964;28;20037;-72
2021/07/18 13:16:09;;;;;;;6.23;3.17;;;;;;;;;;8277605;28;20102;-72
2021/07/18 13:20:16;;;;;;;6.00;3.03;;;;;;;;;;8289310;28;20690;-73
2021/07/18 13:24:43;;;;;;;5.13;3.30;;;;;;;;;;8279348;28;20037;-72
2021/07/18 13:28:47;;;;;;;7.45;3.97;;;;;;;;;;8282018;28;20425;-71
2021/07/18 13:32:54;;;;;;;6.60;4.10;;;;;;;;;;8293782;28;20048;-72
2021/07/18 13:36:58;;;;;;;6.47;3.27;;;;;;;;;;8278805;28;20044;-72
2021/07/18 13:41:11;;;;;;;10.10;3.78;;;;;;;;;;8258390;28;20586;-71
2021/07/18 13:45:17;;;;;;;7.13;3.22;;;;;;;;;;8283770;28;20565;-71
2021/07/18 13:49:23;;;;;;;5.88;3.45;;;;;;;;;;8272017;28;20467;-71
2021/07/18 13:53:28;;;;;;;7.88;3.90;;;;;;;;;;8289557;28;20398;-71
2021/07/18 13:57:33;;;;;;;7.70;3.53;;;;;;;;;;8287807;28;20355;-71
2021/07/18 14:01:39;;;;;;;10.80;3.75;;;;;;;;;;8295811;28;20465;-70
2021/07/18 14:05:44;;;;;;;5.47;3.58;;;;;;;;;;8323617;28;20353;-70
2021/07/18 14:09:51;;;;;;;8.20;3.25;;;;;;;;;;8325255;28;20489;-70
2021/07/18 14:13:56;;;;;;;4.25;3.67;;;;;;;;;;8325983;28;20471;-73
2021/07/18 14:18:03;;;;;;;8.40;3.80;;;;;;;;;;8208638;28;20471;-73
2021/07/18 14:22:08;;;;;;;;;;;;;;;;;;8148848;28;20044;-73
2021/07/18 14:26:12;;;;;;;6.07;3.85;;;;;;;;;;8254090;28;19942;-74
2021/07/18 14:30:20;;;;;;;6.47;3.63;;;;;;;;;;8285752;28;20346;-72
2021/07/18 14:34:25;;;;;;;8.32;4.47;;;;;;;;;;8327172;28;20036;-72
2021/07/18 14:38:29;;;;;;;10.98;3.85;;;;;;;;;;8327028;28;20366;-72
2021/07/18 14:42:33;;;;;;;5.43;3.85;;;;;;;;;;8310753;28;20505;-73
2021/07/18 14:46:38;;;;;;;5.22;3.53;;;;;;;;;;8292512;28;20044;-72
2021/07/18 14:50:47;;;;;;;7.38;3.53;;;;;;;;;;8293945;28;20520;-72
2021/07/18 14:54:51;;;;;;;12.65;3.67;;;;;;;;;;8239789;28;20466;-71
2021/07/18 14:58:56;;;;;;;11.18;3.95;;;;;;;;;;8329907;28;20362;-73
2021/07/18 15:03:02;;;;;;;5.38;3.75;;;;;;;;;;8327941;28;20658;-72
2021/07/18 15:07:07;;;;;;;6.43;3.63;;;;;;;;;;8325678;28;20048;-71
2021/07/18 15:11:12;;;;;;;8.45;3.53;;;;;;;;;;8324834;28;20536;-72
2021/07/18 15:15:17;;;;;;;7.07;3.25;;;;;;;;;;8317073;28;20359;-73
2021/07/18 15:19:21;;;;;;;6.18;3.53;;;;;;;;;;8281224;28;20071;-73
2021/07/18 15:23:27;;;;;;;5.15;3.20;;;;;;;;;;8169347;28;20040;-72
2021/07/18 15:27:31;;;;;;;6.18;3.67;;;;;;;;;;8301671;28;20456;-72
2021/07/18 15:31:37;;;;;;;5.05;3.42;;;;;;;;;;8305717;28;20044;-72
2021/07/18 15:35:41;;;;;;;4.90;3.30;;;;;;;;;;8307886;28;20351;-72
2021/07/18 15:39:45;;;;;;;4.93;3.60;;;;;;;;;;8314864;28;20348;-72
2021/07/18 15:43:51;;;;;;;8.20;3.72;;;;;;;;;;8299797;28;20070;-72
2021/07/18 15:47:55;;;;;;;4.45;3.22;;;;;;;;;;8309507;28;20443;-72
2021/07/18 15:51:58;;;;;;;5.18;3.20;;;;;;;;;;8308140;28;20367;-72
2021/07/18 15:56:02;;;;;;;7.88;2.85;;;;;;;;;;8282654;28;20390;-72
2021/07/18 16:00:10;;;;;;;6.40;3.05;;;;;;;;;;8307681;28;20500;-73
2021/07/18 16:04:14;;;;;;;4.57;2.78;;;;;;;;;;8305494;28;20461;-72
2021/07/18 16:08:19;;;;;;;4.53;2.47;;;;;;;;;;8309544;28;20942;-72
2021/07/18 16:12:24;;;;;;;3.83;3.05;;;;;;;;;;8321345;28;20047;-73
2021/07/18 16:16:32;;;;;;;5.30;2.85;;;;;;;;;;8315349;28;20383;-72
2021/07/18 16:20:36;;;;;;;9.95;3.00;;;;;;;;;;8320554;28;20383;-72
2021/07/18 16:24:40;;;;;;;12.05;3.65;;;;;;;;;;8305102;28;20389;-73
2021/07/18 16:28:44;;;;;;;8.55;3.47;;;;;;;;;;8316530;28;20048;-72
2021/07/18 16:32:50;;;;;;;6.88;3.20;;;;;;;;;;8324816;28;20479;-72
2021/07/18 16:36:55;;;;;;;11.93;2.90;;;;;;;;;;8325799;28;20494;-72
2021/07/18 16:41:00;;;;;;;12.73;3.25;;;;;;;;;;8260329;28;20348;-72
2021/07/18 16:45:05;;;;;;;4.28;3.42;;;;;;;;;;8305638;28;20052;-71
2021/07/18 16:49:10;;;;;;;4.22;3.08;;;;;;;;;;8305991;28;20040;-72
2021/07/18 16:53:15;;;;;;;7.35;3.63;;;;;;;;;;8296755;28;20479;-72
2021/07/18 16:57:20;;;;;;;9.07;4.30;;;;;;;;;;8287302;28;20371;-73
2021/07/18 17:01:25;;;;;;;7.45;3.05;;;;;;;;;;8285186;28;20494;-71
2021/07/18 17:05:31;;;;;;;9.05;3.90;;;;;;;;;;8286084;28;20368;-72
2021/07/18 17:09:36;;;;;;;5.55;2.80;;;;;;;;;;8287859;28;20490;-72
2021/07/18 17:13:45;;;;;;;11.50;3.33;;;;;;;;;;8285649;28;20351;-72
2021/07/18 17:17:50;;;;;;;5.32;3.30;;;;;;;;;;8290332;28;20466;-72
2021/07/18 17:21:55;;;;;;;9.80;3.13;;;;;;;;;;8290429;28;20479;-72
2021/07/18 17:26:02;;;;;;;4.80;3.28;;;;;;;;;;8292244;28;20478;-72
2021/07/18 17:30:09;;;;;;;6.85;3.65;;;;;;;;;;8273577;28;20049;-72
2021/07/18 17:34:28;;;;;;;3.88;3.30;;;;;;;;;;8290410;28;20414;-73
2021/07/18 17:38:34;;;;;;;7.95;3.78;;;;;;;;;;8290084;28;20471;-72
2021/07/18 17:42:42;;;;;;;4.13;3.30;;;;;;;;;;8288308;28;20378;-72
2021/07/18 17:46:46;;;;;;;10.27;4.23;;;;;;;;;;8290601;28;20436;-72
2021/07/18 17:50:51;;;;;;;7.10;3.42;;;;;;;;;;8287286;28;20070;-71
2021/07/18 17:54:56;;;;;;;5.30;3.20;;;;;;;;;;8290764;28;20451;-72
2021/07/18 17:59:01;;;;;;;11.45;3.60;;;;;;;;;;8289884;28;20325;-72
2021/07/18 18:03:07;;;;;;;8.00;3.72;;;;;;;;;;8291101;28;20044;-72
2021/07/18 18:07:12;;;;;;;7.22;3.95;;;;;;;;;;8354840;28;20474;-71
2021/07/18 18:11:17;;;;;;;6.28;4.10;;;;;;;;;;8319996;28;20066;-72
2021/07/18 18:15:23;;;;;;;7.00;4.20;;;;;;;;;;8356150;28;20484;-72
2021/07/18 18:19:28;;;;;;;6.68;5.03;;;;;;;;;;8355062;28;20366;-72
2021/07/18 18:23:33;;;;;;;9.68;4.95;;;;;;;;;;8355026;28;20066;-73
2021/07/18 18:27:39;;;;;;;7.85;5.00;;;;;;;;;;8355175;28;20044;-72
2021/07/18 18:31:44;;;;;;;5.55;4.07;;;;;;;;;;8355492;28;20379;-73
2021/07/18 18:35:50;;;;;;;8.75;4.15;;;;;;;;;;8336282;28;20340;-72
2021/07/18 18:39:55;;;;;;;8.73;4.30;;;;;;;;;;8355107;28;20047;-72
2021/07/18 18:44:00;;;;;;;7.43;4.28;;;;;;;;;;8272703;28;20374;-72
2021/07/18 18:48:06;;;;;;;7.00;4.53;;;;;;;;;;8337392;28;20142;-72
2021/07/18 18:52:11;;;;;;;10.68;4.40;;;;;;;;;;8321394;28;20382;-72
2021/07/18 18:56:21;;;;;;;7.97;4.25;;;;;;;;;;8327207;28;20371;-72
2021/07/18 19:00:26;;;;;;;10.60;4.90;;;;;;;;;;8326967;28;20356;-71
2021/07/18 19:04:32;;;;;;;12.48;5.95;;;;;;;;;;8326173;28;20089;-71
2021/07/18 19:08:38;;;;;;;12.18;4.95;;;;;;;;;;8327445;28;20044;-72
2021/07/18 19:12:43;;;;;;;11.20;5.45;;;;;;;;;;8325619;28;20040;-72
2021/07/18 19:16:49;;;;;;;11.80;5.75;;;;;;;;;;8327637;28;20474;-72
2021/07/18 19:20:56;;;;;;;16.20;5.70;;;;;;;;;;8326319;28;20040;-72
2021/07/18 19:25:02;;;;;;;6.83;5.47;;;;;;;;;;8324761;28;20375;-72
2021/07/18 19:29:09;;;;;;;8.43;5.63;;;;;;;;;;8325100;28;20827;-72
2021/07/18 19:33:15;;;;;;;9.98;5.60;;;;;;;;;;8324554;28;20378;-73
2021/07/18 19:37:20;;;;;;;10.15;5.60;;;;;;;;;;8329085;28;20367;-72
2021/07/18 19:41:26;;;;;;;7.10;4.97;;;;;;;;;;8340708;28;20070;-72
2021/07/18 19:45:31;;;;;;;10.20;5.20;;;;;;;;;;8274120;28;20464;-72
2021/07/18 19:49:36;;;;;;;11.55;4.60;;;;;;;;;;8293831;28;20485;-72
2021/07/18 19:53:43;;;;;;;8.73;5.25;;;;;;;;;;8291471;28;20353;-72
2021/07/18 19:57:48;;;;;;;8.02;5.53;;;;;;;;;;8293976;28;20502;-73
2021/07/18 20:01:55;;;;;;;8.25;5.53;;;;;;;;;;8291695;28;20364;-73
2021/07/18 20:05:59;;;;;;;10.25;5.97;;;;;;;;;;8292495;28;20477;-71
2021/07/18 20:10:07;;;;;;;14.38;6.60;;;;;;;;;;8291989;28;20040;-72
2021/07/18 20:14:12;;;;;;;8.05;5.65;;;;;;;;;;8292955;28;20387;-72
2021/07/18 20:18:18;;;;;;;10.45;6.35;;;;;;;;;;8290289;28;20458;-72
2021/07/18 20:22:24;;;;;;;9.43;5.47;;;;;;;;;;8292182;28;20507;-72
2021/07/18 20:26:29;;;;;;;10.57;5.85;;;;;;;;;;8291950;28;20029;-72
2021/07/18 20:30:36;;;;;;;14.25;5.63;;;;;;;;;;8292005;28;20467;-72
2021/07/18 20:34:41;;;;;;;11.70;6.25;;;;;;;;;;8290123;28;20401;-71
2021/07/18 20:38:48;;;;;;;12.55;6.47;;;;;;;;;;8291162;28;20360;-72
2021/07/18 20:42:53;;;;;;;9.52;6.38;;;;;;;;;;8300248;28;20412;-72
2021/07/18 20:46:59;;;;;;;15.25;6.18;;;;;;;;;;8357995;28;20044;-71
2021/07/18 20:51:05;;;;;;;15.87;6.60;;;;;;;;;;8356518;28;20661;-72
2021/07/18 20:55:12;;;;;;;9.73;5.60;;;;;;;;;;8359426;28;20474;-71
2021/07/18 20:59:17;;;;;;;13.90;5.90;;;;;;;;;;8339500;28;20483;-72
2021/07/18 21:03:22;;;;;;;7.15;5.72;;;;;;;;;;8357644;28;20324;-72
2021/07/18 21:07:28;;;;;;;13.88;6.03;;;;;;;;;;8339093;28;20055;-72
2021/07/18 21:11:32;;;;;;;13.30;7.38;;;;;;;;;;8358912;28;20353;-72
2021/07/18 21:15:37;;;;;;;15.05;7.00;;;;;;;;;;8358343;28;20070;-72
2021/07/18 21:19:43;;;;;;;10.73;7.10;;;;;;;;;;8358614;28;20340;-71
2021/07/18 21:23:49;;;;;;;11.95;6.57;;;;;;;;;;8358513;28;20446;-72
2021/07/18 21:27:53;;;;;;;13.60;6.22;;;;;;;;;;8356990;28;20066;-72
2021/07/18 21:31:59;;;;;;;8.32;5.50;;;;;;;;;;8338720;28;20492;-72
2021/07/18 21:36:06;;;;;;;10.35;5.75;;;;;;;;;;8357202;28;20059;-72
2021/07/18 21:40:19;;;;;;;7.30;5.53;;;;;;;;;;8338530;28;20439;-72
2021/07/18 21:44:24;;;;;;;10.35;5.65;;;;;;;;;;8322003;28;20082;-72
2021/07/18 21:48:30;;;;;;;14.35;6.00;;;;;;;;;;8323738;28;20527;-72
2021/07/18 21:52:35;;;;;;;9.60;5.05;;;;;;;;;;8322609;28;20355;-71
2021/07/18 21:56:45;;;;;;;9.27;5.75;;;;;;;;;;8323562;28;20496;-71
2021/07/18 22:00:50;;;;;;;7.55;4.93;;;;;;;;;;8339457;28;20384;-73
2021/07/18 22:04:56;;;;;;;8.57;4.90;;;;;;;;;;8324336;28;20380;-71
2021/07/18 22:09:01;;;;;;;9.13;5.00;;;;;;;;;;8322756;28;20332;-72
2021/07/18 22:13:06;;;;;;;7.45;4.85;;;;;;;;;;8322712;28;20368;-72
2021/07/18 22:17:12;;;;;;;7.53;5.28;;;;;;;;;;8321645;28;20501;-72
2021/07/18 22:21:18;;;;;;;7.07;4.60;;;;;;;;;;8323422;28;20336;-73
2021/07/18 22:25:23;;;;;;;7.38;5.15;;;;;;;;;;8322971;28;20493;-72
2021/07/18 22:29:29;;;;;;;17.58;6.65;;;;;;;;;;8329852;28;20462;-72
2021/07/18 22:33:34;;;;;;;13.80;6.25;;;;;;;;;;8329332;28;20508;-74
2021/07/18 22:37:41;;;;;;;18.15;6.45;;;;;;;;;;8328757;28;20363;-72
2021/07/18 22:41:48;;;;;;;8.15;5.28;;;;;;;;;;8328619;28;20370;-72
2021/07/18 22:45:54;;;;;;;;;;;;;;;;;;8360579;28;20401;-73
2021/07/18 22:50:00;;;;;;;10.52;5.28;;;;;;;;;;8361156;28;20256;-73
2021/07/18 22:54:05;;;;;;;9.80;6.55;;;;;;;;;;8362153;28;20489;-72
2021/07/18 22:58:12;;;;;;;10.30;6.20;;;;;;;;;;8362582;28;20063;-73
2021/07/18 23:02:17;;;;;;;17.23;7.32;;;;;;;;;;8360587;28;20466;-72
2021/07/18 23:06:23;;;;;;;14.30;6.07;;;;;;;;;;8343228;28;20375;-72
2021/07/18 23:10:28;;;;;;;10.02;5.95;;;;;;;;;;8361116;28;20358;-73
2021/07/18 23:14:32;;;;;;;15.00;6.45;;;;;;;;;;8361116;28;20366;-72
2021/07/18 23:18:38;;;;;;;14.55;5.78;;;;;;;;;;8360026;28;20052;-73
2021/07/18 23:22:44;;;;;;;8.75;5.93;;;;;;;;;;8360984;28;20040;-72
2021/07/18 23:26:49;;;;;;;10.35;6.22;;;;;;;;;;8341626;28;20051;-72
2021/07/18 23:30:55;;;;;;;9.43;6.35;;;;;;;;;;8342889;28;20361;-72
2021/07/18 23:34:59;;;;;;;11.45;6.22;;;;;;;;;;8360283;28;20044;-72
2021/07/18 23:39:05;;;;;;;10.55;5.32;;;;;;;;;;8362604;28;20061;-72
2021/07/18 23:43:10;;;;;;;10.30;5.10;;;;;;;;;;8360228;28;20075;-72
2021/07/18 23:47:17;;;;;;;9.73;4.07;;;;;;;;;;8361593;28;20070;-72
2021/07/18 23:51:23;;;;;;;8.45;3.50;;;;;;;;;;8359939;28;20447;-72
2021/07/18 23:55:29;;;;;;;8.35;3.08;;;;;;;;;;8361371;28;20059;-72
2021/07/18 23:59:35;;;;;;;9.00;3.10;;;;;;;;;;8341703;28;20043;-72
